This demonstration page uses our WeatherBlox Daily Observations layout. Learn more.

41.55636, -103.73856

Hourly Observations for August 29, 2019

Temp ( °F °C ) Dew Point ( °F °C ) Humidity (%) Winds ( mph kmh ) Pressure ( in mb ) Visibility ( mi km ) Precip ( " mm )
12:58 am 00:58 Clear 59 15.1 54 12 82 82 S 7 11 29.85 1011 10 16.09344 0 0
1:58 am 01:58 Clear 61 15.9 54 12 78 78 SW 9 15 29.85 1011 10 16.09344 0 0
2:58 am 02:58 Clear 55 12.5 51 10.3 87 87 W 7 11 29.85 1011 10 16.09344 0 0
3:58 am 03:58 Clear 55 12.9 50 10 83 83 W 10 17 29.83 1010 10 16.09344 0 0
4:58 am 04:58 Mostly Cloudy 53 11.8 48 8.9 83 83 W 7 11 29.83 1010 10 16.09344 0 0
5:58 am 05:58 Clear 51 10.5 46 7.5 82 82 W 8 13 29.85 1011 10 16.09344 0 0
7:58 am 07:58 Sunny 58 14.3 49 9.6 74 74 NW 8 13 29.91 1013 10 16.09344 0 0
8:58 am 08:58 Sunny 65 18.6 52 11.2 62 62 N 18 30 29.91 1013 10 16.09344 0 0
9:57 am 09:57 Sunny 67 19.5 51 10.4 56 56 N 20 31 29.94 1014 10 16.09344 0 0
10:56 am 10:56 Sunny 69 20.7 55 12.5 60 60 NNE 14 22 29.97 1015 10 16.09344 0 0
11:56 am 11:56 Sunny 71 21.4 52 11 52 52 NNE 14 22 30 1016 10 16.09344 0 0
12:56 pm 12:56 Sunny 71 21.6 53 11.6 53 53 NNE 15 24 30 1016 10 16.09344 0 0
1:56 pm 13:56 Sunny 72 22.2 51 10.8 49 49 ENE 13 20 30 1016 10 16.09344 0 0
2:58 pm 14:58 Mostly Sunny 73 22.7 51 10.5 46 46 ENE 9 15 30.03 1017 10 16.09344 0 0
3:58 pm 15:58 Sunny 74 23.2 51 10.5 45 45 NE 10 17 30.03 1017 10 16.09344 0 0
4:58 pm 16:58 Sunny 74 23.4 50 10.1 43 43 ENE 9 15 30 1016 10 16.09344 0 0
5:58 pm 17:58 Sunny 73 23 49 9.6 43 43 E 8 13 30 1016 10 16.09344 0 0
6:58 pm 18:58 Sunny 70 21 50 10.1 50 50 E 9 15 30.03 1017 10 16.09344 0 0
7:58 pm 19:58 Clear 62 16.7 51 10.4 67 67 E 9 15 30.06 1018 10 16.09344 0 0
8:58 pm 20:58 Clear 58 14.2 50 10.1 77 77 SE 7 11 30.06 1018 10 16.09344 0 0
9:58 pm 21:58 Clear 57 13.7 49 9.5 76 76 S 5 7 30.06 1018 10 16.09344 0 0
10:58 pm 22:58 Clear 56 13.1 48 8.9 76 76 S 3 6 30.09 1019 10 16.09344 0 0
11:58 pm 23:58 Clear 53 11.8 47 8.6 81 81 SE 5 7 30.12 1020 10 16.09344 0 0

Powered by AerisWeather